Time;durP1;ratioP1;P1;durP2;ratioP2;P2;SDS_P1;SDS_P2;PMS_P1;PMS_P2;Temp;Humidity;BMP_temperature;BMP_pressure;BME280_temperature;BME280_humidity;BME280_pressure;Samples;Min_cycle;Max_cycle;Signal;HPM_P1;HPM_P2
2022/04/14 00:00:03;;;;;;;13.07;6.47;;;10.60;99.90;;;;;;5013949;28;20533;-79
2022/04/14 00:02:28;;;;;;;16.35;6.95;;;10.60;99.90;;;;;;5014395;28;20045;-79
2022/04/14 00:04:54;;;;;;;12.27;6.88;;;10.60;99.90;;;;;;5014128;28;20443;-79
2022/04/14 00:07:19;;;;;;;17.75;7.15;;;10.60;99.90;;;;;;5014209;28;20045;-79
2022/04/14 00:09:45;;;;;;;11.20;6.53;;;10.60;99.90;;;;;;5013991;28;20053;-79
2022/04/14 00:12:11;;;;;;;12.10;6.45;;;10.50;99.90;;;;;;5013774;28;20041;-79
2022/04/14 00:14:37;;;;;;;11.68;6.35;;;10.50;99.90;;;;;;5014859;28;20095;-79
2022/04/14 00:17:02;;;;;;;13.70;6.57;;;10.50;99.90;;;;;;5014575;28;20141;-79
2022/04/14 00:19:28;;;;;;;14.18;6.05;;;10.50;99.90;;;;;;5013992;28;20050;-79
2022/04/14 00:21:54;;;;;;;12.95;6.20;;;10.40;99.90;;;;;;4997732;28;20109;-79
2022/04/14 00:24:19;;;;;;;12.60;6.40;;;10.40;99.90;;;;;;5001783;28;20042;-78
2022/04/14 00:26:45;;;;;;;12.02;6.60;;;10.40;99.90;;;;;;5029892;28;20132;-79
2022/04/14 00:29:11;;;;;;;12.40;6.32;;;10.40;99.90;;;;;;5008264;28;20080;-79
2022/04/14 00:31:37;;;;;;;14.85;7.07;;;10.40;99.90;;;;;;5013632;28;20117;-79
2022/04/14 00:34:02;;;;;;;13.45;6.78;;;10.40;99.90;;;;;;5014562;28;20073;-79
2022/04/14 00:36:28;;;;;;;13.70;8.13;;;10.40;99.90;;;;;;4997167;28;20034;-79
2022/04/14 00:38:54;;;;;;;20.38;7.45;;;10.40;99.90;;;;;;4997085;28;20041;-79
2022/04/14 00:41:20;;;;;;;12.43;7.32;;;10.30;99.90;;;;;;4996922;28;20046;-79
2022/04/14 00:43:51;;;;;;;13.35;7.18;;;10.30;99.90;;;;;;5013606;28;20040;-79
2022/04/14 00:46:17;;;;;;;15.35;7.03;;;10.40;99.90;;;;;;5013551;28;20467;-79
2022/04/14 00:48:44;;;;;;;16.58;8.60;;;10.30;99.90;;;;;;5013701;28;20049;-79
2022/04/14 00:51:09;;;;;;;14.73;8.07;;;10.30;99.90;;;;;;5013828;28;20049;-79
2022/04/14 00:53:37;;;;;;;18.55;8.27;;;10.30;99.90;;;;;;5013612;28;20053;-79
2022/04/14 00:56:03;;;;;;;16.23;7.63;;;10.30;99.90;;;;;;5013289;28;20084;-79
2022/04/14 00:58:29;;;;;;;16.30;8.80;;;10.40;99.90;;;;;;5014559;28;20046;-79
2022/04/14 01:00:55;;;;;;;17.73;8.07;;;10.30;99.90;;;;;;5013064;28;20033;-79
2022/04/14 01:03:21;;;;;;;19.92;8.80;;;10.30;99.90;;;;;;4997210;28;20041;-79
2022/04/14 01:05:47;;;;;;;18.42;9.40;;;10.30;99.90;;;;;;5015026;28;20045;-79
2022/04/14 01:08:17;;;;;;;15.57;8.77;;;10.30;99.90;;;;;;5012937;28;20056;-79
2022/04/14 01:10:49;;;;;;;16.83;9.57;;;10.30;99.90;;;;;;4996761;28;20420;-79
2022/04/14 01:13:15;;;;;;;15.73;9.03;;;10.30;99.90;;;;;;5012836;28;20042;-79
2022/04/14 01:15:42;;;;;;;14.40;7.80;;;10.30;99.90;;;;;;5012620;28;20799;-79
2022/04/14 01:18:08;;;;;;;20.58;8.25;;;10.20;99.90;;;;;;5012822;28;20057;-79
2022/04/14 01:20:34;;;;;;;18.00;9.48;;;10.20;99.90;;;;;;5012964;28;20042;-79
2022/04/14 01:23:03;;;;;;;18.25;9.85;;;10.20;99.90;;;;;;4997428;28;20068;-79
2022/04/14 01:25:29;;;;;;;21.40;10.60;;;10.10;99.90;;;;;;4996941;28;20461;-79
2022/04/14 01:27:55;;;;;;;20.13;10.45;;;10.10;99.90;;;;;;5015010;28;20494;-79
2022/04/14 01:30:21;;;;;;;19.70;11.07;;;10.10;99.90;;;;;;5012987;28;20053;-79
2022/04/14 01:32:46;;;;;;;21.95;10.90;;;10.10;99.90;;;;;;5012923;28;20096;-79
2022/04/14 01:35:14;;;;;;;18.83;11.57;;;10.10;99.90;;;;;;4996278;28;20045;-79
2022/04/14 01:37:40;;;;;;;21.45;10.27;;;10.10;99.90;;;;;;4996147;28;20076;-79
2022/04/14 01:40:06;;;;;;;28.00;12.05;;;10.00;99.90;;;;;;4996571;28;20497;-79
2022/04/14 01:42:32;;;;;;;19.65;11.95;;;10.00;99.90;;;;;;4996557;28;20040;-79
2022/04/14 01:44:57;;;;;;;26.00;12.68;;;10.00;99.90;;;;;;4996545;28;20037;-79
2022/04/14 01:47:23;;;;;;;24.33;11.80;;;10.10;99.90;;;;;;4996821;28;20046;-79
2022/04/14 01:49:48;;;;;;;24.67;13.40;;;10.10;99.90;;;;;;4996390;28;20041;-79
2022/04/14 01:52:14;;;;;;;26.95;12.60;;;10.00;99.90;;;;;;4996331;28;20048;-79
2022/04/14 01:54:39;;;;;;;21.33;11.70;;;10.00;99.90;;;;;;5017267;28;20633;-79
2022/04/14 01:57:05;;;;;;;21.17;12.32;;;10.00;99.90;;;;;;4999950;28;20042;-79
2022/04/14 01:59:31;;;;;;;23.92;11.98;;;10.00;99.90;;;;;;5016184;28;20041;-79
2022/04/14 02:01:56;;;;;;;26.45;12.60;;;10.00;99.90;;;;;;5017109;28;20038;-79
2022/04/14 02:04:22;;;;;;;26.50;11.70;;;9.90;99.90;;;;;;5016252;28;20044;-79
2022/04/14 02:06:47;;;;;;;20.42;11.55;;;9.90;99.90;;;;;;5016138;28;20041;-79
2022/04/14 02:09:13;;;;;;;23.98;11.48;;;9.90;99.90;;;;;;5016046;28;20108;-79
2022/04/14 02:11:38;;;;;;;21.52;11.95;;;9.90;99.90;;;;;;4999737;28;20479;-79
2022/04/14 02:14:04;;;;;;;20.75;11.77;;;9.80;99.90;;;;;;4999927;28;20046;-79
2022/04/14 02:16:30;;;;;;;23.73;12.93;;;9.80;99.90;;;;;;5017040;28;20298;-79
2022/04/14 02:18:55;;;;;;;23.80;12.30;;;9.80;99.90;;;;;;4999342;28;20038;-79
2022/04/14 02:21:21;;;;;;;23.10;11.63;;;9.70;99.90;;;;;;5016488;28;20064;-79
2022/04/14 02:23:46;;;;;;;24.08;12.25;;;9.80;99.90;;;;;;4997477;28;20112;-78
2022/04/14 02:26:12;;;;;;;25.17;12.57;;;9.80;99.90;;;;;;5014055;28;20628;-78
2022/04/14 02:28:37;;;;;;;27.60;12.75;;;9.70;99.90;;;;;;5013621;28;20049;-78
2022/04/14 02:31:03;;;;;;;20.23;12.50;;;9.70;99.90;;;;;;4997380;28;20419;-78
2022/04/14 02:33:29;;;;;;;21.88;12.18;;;9.70;99.90;;;;;;5013732;28;20056;-78
2022/04/14 02:35:54;;;;;;;25.00;13.07;;;9.70;99.90;;;;;;5013602;28;20045;-78
2022/04/14 02:38:20;;;;;;;25.13;12.23;;;9.70;99.90;;;;;;5013354;28;20390;-78
2022/04/14 02:40:45;;;;;;;24.83;13.40;;;9.70;99.90;;;;;;5013605;28;20497;-79
2022/04/14 02:43:11;;;;;;;20.42;11.35;;;9.60;99.90;;;;;;5014589;28;20038;-78
2022/04/14 02:45:36;;;;;;;25.70;12.85;;;9.60;99.90;;;;;;5013353;28;20042;-79
2022/04/14 02:48:02;;;;;;;24.48;11.23;;;9.60;99.90;;;;;;5013596;28;20045;-78
2022/04/14 02:50:27;;;;;;;22.45;12.57;;;9.50;99.90;;;;;;5013424;28;20481;-80
2022/04/14 02:52:54;;;;;;;25.33;13.82;;;9.50;99.90;;;;;;5013644;28;20049;-78
2022/04/14 02:55:21;;;;;;;27.95;14.00;;;9.60;99.90;;;;;;5013281;28;20053;-79
2022/04/14 02:57:48;;;;;;;26.70;14.43;;;9.60;99.90;;;;;;5013478;28;20409;-78
2022/04/14 03:00:14;;;;;;;28.50;14.10;;;9.50;99.90;;;;;;5012897;28;20046;-81
2022/04/14 03:02:40;;;;;;;23.25;12.57;;;9.60;99.90;;;;;;5013754;28;20129;-78
2022/04/14 03:05:07;;;;;;;24.48;14.40;;;9.60;99.90;;;;;;5013475;28;20050;-81
2022/04/14 03:07:33;;;;;;;22.73;12.40;;;9.50;99.90;;;;;;4996615;28;20038;-78
2022/04/14 03:09:58;;;;;;;25.70;12.32;;;9.50;99.90;;;;;;4996702;28;20452;-79
2022/04/14 03:12:24;;;;;;;25.08;14.05;;;9.40;99.90;;;;;;5013554;28;20037;-82
2022/04/14 03:14:50;;;;;;;26.70;13.10;;;9.40;99.90;;;;;;4996654;28;20052;-78
2022/04/14 03:17:16;;;;;;;24.38;12.65;;;9.40;99.90;;;;;;5012992;28;20038;-78
2022/04/14 03:19:41;;;;;;;26.55;13.60;;;9.40;99.90;;;;;;5013099;28;20088;-78
2022/04/14 03:22:07;;;;;;;24.38;12.75;;;9.40;99.90;;;;;;5012809;28;20512;-78
2022/04/14 03:24:32;;;;;;;22.42;12.65;;;9.40;99.90;;;;;;5012797;28;20049;-80
2022/04/14 03:26:58;;;;;;;23.85;13.52;;;9.40;99.90;;;;;;4996782;28;20049;-78
2022/04/14 03:29:23;;;;;;;22.00;13.00;;;9.40;99.90;;;;;;4996319;28;20042;-78
2022/04/14 03:31:49;;;;;;;24.13;13.30;;;9.30;99.90;;;;;;5012735;28;20038;-78
2022/04/14 03:34:15;;;;;;;24.55;12.40;;;9.30;99.90;;;;;;4996050;28;20489;-79
2022/04/14 03:36:40;;;;;;;24.65;13.25;;;9.30;99.90;;;;;;5012246;28;20413;-78
2022/04/14 03:39:06;;;;;;;25.17;14.00;;;9.20;99.90;;;;;;4996063;28;20127;-78
2022/04/14 03:41:31;;;;;;;24.83;13.38;;;9.30;99.90;;;;;;5029256;28;20064;-81
2022/04/14 03:43:57;;;;;;;23.55;13.88;;;9.20;99.90;;;;;;5029470;28;20484;-79
2022/04/14 03:46:23;;;;;;;27.10;14.10;;;9.20;99.90;;;;;;5012355;28;20124;-81
2022/04/14 03:48:48;;;;;;;27.00;14.48;;;9.20;99.90;;;;;;5013574;28;20498;-78
2022/04/14 03:51:14;;;;;;;26.05;14.07;;;9.20;99.90;;;;;;5013600;28;20053;-79
2022/04/14 03:53:43;;;;;;;24.33;14.90;;;9.20;99.90;;;;;;5012329;28;20046;-78
2022/04/14 03:56:10;;;;;;;28.92;14.15;;;9.10;99.90;;;;;;5012474;28;20049;-81
2022/04/14 03:58:35;;;;;;;25.10;14.70;;;9.10;99.90;;;;;;5012167;28;20485;-80
2022/04/14 04:01:01;;;;;;;24.33;12.05;;;9.10;99.90;;;;;;5012161;28;20045;-78
2022/04/14 04:03:26;;;;;;;24.20;12.82;;;9.10;99.90;;;;;;5012056;28;20046;-78
2022/04/14 04:05:53;;;;;;;25.85;15.10;;;9.00;99.90;;;;;;5012253;28;20045;-78
2022/04/14 04:08:18;;;;;;;22.73;13.23;;;9.00;99.90;;;;;;5013311;28;20057;-78
2022/04/14 04:10:44;;;;;;;26.73;14.25;;;9.00;99.90;;;;;;5011823;28;20059;-78
2022/04/14 04:13:10;;;;;;;25.50;13.75;;;8.90;99.90;;;;;;5011777;28;20061;-79
2022/04/14 04:15:36;;;;;;;23.00;13.25;;;8.90;99.90;;;;;;5011496;28;20038;-79
2022/04/14 04:18:02;;;;;;;29.33;13.30;;;8.90;99.90;;;;;;5011982;28;20042;-78
2022/04/14 04:20:27;;;;;;;22.95;13.45;;;8.90;99.90;;;;;;5011720;28;20092;-78
2022/04/14 04:22:53;;;;;;;30.42;14.57;;;8.80;99.90;;;;;;4995356;28;20504;-78
2022/04/14 04:25:18;;;;;;;27.92;13.93;;;8.80;99.90;;;;;;5011676;28;20053;-79
2022/04/14 04:27:44;;;;;;;24.90;13.02;;;8.70;99.90;;;;;;5011753;28;20041;-80
2022/04/14 04:30:10;;;;;;;25.35;12.70;;;8.70;99.90;;;;;;5011833;28;20462;-79
2022/04/14 04:32:35;;;;;;;30.42;16.80;;;8.60;99.90;;;;;;5012448;28;20037;-79
2022/04/14 04:35:06;;;;;;;31.80;14.10;;;8.60;99.90;;;;;;5011576;28;20049;-79
2022/04/14 04:37:32;;;;;;;27.17;12.48;;;8.60;99.90;;;;;;5011587;28;20559;-80
2022/04/14 04:39:57;;;;;;;23.55;13.15;;;8.60;99.90;;;;;;5011750;28;20121;-79
2022/04/14 04:42:23;;;;;;;29.80;14.38;;;8.60;99.90;;;;;;5012678;28;20492;-79
2022/04/14 04:44:49;;;;;;;29.33;14.50;;;8.60;99.90;;;;;;5012466;28;20121;-79
2022/04/14 04:47:16;;;;;;;30.35;14.85;;;8.60;99.90;;;;;;5011239;28;20042;-79
2022/04/14 04:49:42;;;;;;;31.75;15.38;;;8.60;99.90;;;;;;5010673;28;20104;-79
2022/04/14 04:52:08;;;;;;;31.75;13.40;;;8.60;99.90;;;;;;5012229;28;20041;-79
2022/04/14 04:54:33;;;;;;;27.00;14.05;;;8.50;99.90;;;;;;5012520;28;20056;-79
2022/04/14 04:56:59;;;;;;;34.35;15.13;;;8.50;99.90;;;;;;5009946;28;20045;-80
2022/04/14 04:59:24;;;;;;;27.90;15.50;;;8.50;99.90;;;;;;4998888;28;20042;-79
2022/04/14 05:01:50;;;;;;;34.08;16.30;;;8.50;99.90;;;;;;5011205;28;20042;-79
2022/04/14 05:04:15;;;;;;;37.30;16.17;;;8.50;99.90;;;;;;5011482;28;20033;-78
2022/04/14 05:06:41;;;;;;;39.92;15.57;;;8.60;99.90;;;;;;4993751;28;20117;-79
2022/04/14 05:09:06;;;;;;;25.23;12.85;;;8.60;99.90;;;;;;5010229;28;20052;-79
2022/04/14 05:11:32;;;;;;;27.67;14.60;;;8.50;99.90;;;;;;5010547;28;20048;-79
2022/04/14 05:13:58;;;;;;;39.03;18.30;;;8.50;99.90;;;;;;5010541;28;20054;-79
2022/04/14 05:16:23;;;;;;;35.85;16.30;;;8.50;99.90;;;;;;5011392;28;20052;-80
2022/04/14 05:18:50;;;;;;;28.60;15.73;;;8.50;99.90;;;;;;5010856;28;20420;-79
2022/04/14 05:21:16;;;;;;;31.08;17.67;;;8.50;99.90;;;;;;5009756;28;20131;-80
2022/04/14 05:23:42;;;;;;;38.28;18.58;;;8.60;99.90;;;;;;5010312;28;20100;-80
2022/04/14 05:26:07;;;;;;;37.78;18.45;;;8.60;99.90;;;;;;5011388;28;20042;-79
2022/04/14 05:28:33;;;;;;;39.47;19.42;;;8.60;99.90;;;;;;4992736;28;20128;-79
2022/04/14 05:30:58;;;;;;;37.92;19.50;;;8.70;99.90;;;;;;5010121;28;20045;-79
2022/04/14 05:33:24;;;;;;;38.25;18.70;;;8.80;99.90;;;;;;5011083;28;20042;-79
2022/04/14 05:35:49;;;;;;;39.13;18.90;;;8.80;99.90;;;;;;5011727;28;20104;-79
2022/04/14 05:38:16;;;;;;;43.10;19.88;;;8.90;99.90;;;;;;5009804;28;20042;-79
2022/04/14 05:40:43;;;;;;;40.97;20.40;;;8.90;99.90;;;;;;5011532;28;20112;-80
2022/04/14 05:43:19;;;;;;;33.67;17.23;;;9.00;99.90;;;;;;5013082;28;20045;-80
2022/04/14 05:45:47;;;;;;;29.65;15.30;;;9.00;99.90;;;;;;4997213;28;20046;-80
2022/04/14 05:48:13;;;;;;;34.83;17.92;;;9.10;99.90;;;;;;4997585;28;20049;-81
2022/04/14 05:50:40;;;;;;;30.42;17.38;;;9.20;99.90;;;;;;5012571;28;20093;-81
2022/04/14 05:53:05;;;;;;;28.50;16.25;;;9.40;99.90;;;;;;5015540;28;20049;-80
2022/04/14 05:55:31;;;;;;;33.17;17.92;;;9.40;99.90;;;;;;4998258;28;20060;-81
2022/04/14 05:57:56;;;;;;;32.92;18.33;;;9.60;99.90;;;;;;5014708;28;20037;-82
2022/04/14 06:00:22;;;;;;;35.15;17.73;;;9.70;99.90;;;;;;5015032;28;20528;-81
2022/04/14 06:02:47;;;;;;;32.03;16.40;;;9.80;99.90;;;;;;4996429;28;20049;-80
2022/04/14 06:05:13;;;;;;;32.72;17.75;;;9.90;99.90;;;;;;5013652;28;20524;-80
2022/04/14 06:07:38;;;;;;;29.38;17.63;;;10.00;99.90;;;;;;5016415;28;20037;-80
2022/04/14 06:10:05;;;;;;;32.75;18.63;;;10.20;99.90;;;;;;4996925;28;20058;-81
2022/04/14 06:12:30;;;;;;;43.20;19.77;;;10.30;99.90;;;;;;4998141;28;20042;-80
2022/04/14 06:14:56;;;;;;;36.25;18.92;;;10.40;99.90;;;;;;4998412;28;20124;-82
2022/04/14 06:17:22;;;;;;;31.67;17.45;;;10.40;99.90;;;;;;5015294;28;20042;-81
2022/04/14 06:19:47;;;;;;;35.15;18.70;;;10.50;99.90;;;;;;4995113;28;20192;-80
2022/04/14 06:22:13;;;;;;;38.10;20.20;;;10.50;99.90;;;;;;5015120;28;20042;-82
2022/04/14 06:24:39;;;;;;;38.10;19.95;;;10.50;99.90;;;;;;4995753;28;20053;-82
2022/04/14 06:27:06;;;;;;;38.45;20.30;;;10.50;99.90;;;;;;4997118;28;20505;-81
2022/04/14 06:29:31;;;;;;;40.70;21.02;;;10.60;99.90;;;;;;5014038;28;20077;-82
2022/04/14 06:31:57;;;;;;;36.33;18.85;;;10.60;99.90;;;;;;4997068;28;20344;-81
2022/04/14 06:34:23;;;;;;;41.97;20.80;;;10.70;99.90;;;;;;5012642;28;20038;-81
2022/04/14 06:36:49;;;;;;;40.58;20.08;;;10.80;99.90;;;;;;5012222;28;20079;-81
2022/04/14 06:39:15;;;;;;;35.97;20.23;;;10.80;99.90;;;;;;5012373;28;20048;-80
2022/04/14 06:41:41;;;;;;;47.05;22.55;;;10.80;99.90;;;;;;5018112;28;20083;-81
2022/04/14 06:44:06;;;;;;;39.00;20.98;;;10.90;99.90;;;;;;5002811;28;20125;-82
2022/04/14 06:46:32;;;;;;;43.63;21.10;;;11.10;99.90;;;;;;5014540;28;20042;-81
2022/04/14 06:48:58;;;;;;;39.80;21.33;;;11.20;99.90;;;;;;5019480;28;20046;-81
2022/04/14 06:51:23;;;;;;;47.60;21.73;;;11.40;99.90;;;;;;5006177;28;20059;-80
2022/04/14 06:53:49;;;;;;;42.50;21.48;;;11.50;99.90;;;;;;5023246;28;20072;-81
2022/04/14 06:56:15;;;;;;;41.35;21.63;;;11.50;99.90;;;;;;4998030;28;20045;-82
2022/04/14 06:58:42;;;;;;;41.53;21.20;;;11.60;99.90;;;;;;5012341;28;20034;-81
2022/04/14 07:01:08;;;;;;;39.97;18.98;;;11.70;99.90;;;;;;4996579;28;20044;-81
2022/04/14 07:03:34;;;;;;;45.08;21.13;;;11.80;99.90;;;;;;5014364;28;20042;-81
2022/04/14 07:06:00;;;;;;;37.35;18.85;;;11.90;99.90;;;;;;5013071;28;20045;-81
2022/04/14 07:08:27;;;;;;;41.30;20.40;;;12.00;99.90;;;;;;5012190;28;20054;-81
2022/04/14 07:10:53;;;;;;;40.30;20.42;;;12.10;99.90;;;;;;5012653;28;20205;-81
2022/04/14 07:13:18;;;;;;;39.22;21.08;;;12.40;99.90;;;;;;5012343;28;20084;-81
2022/04/14 07:15:45;;;;;;;37.60;20.88;;;12.70;99.90;;;;;;4996198;28;20049;-80
2022/04/14 07:18:47;;;;;;;36.83;20.17;;;13.20;99.90;;;;;;5072527;23;20042;-81
2022/04/14 07:21:48;;;;;;;43.05;19.50;;;14.10;99.90;;;;;;5015383;28;20133;-81
2022/04/14 07:24:23;;;;;;;38.60;20.52;;;15.00;99.90;;;;;;5024012;28;20073;-81
2022/04/14 07:29:45;;;;;;;42.45;20.15;;;16.00;99.90;;;;;;5027421;28;19928;-81
2022/04/14 07:38:51;;;;;;;32.53;19.35;;;17.10;99.90;;;;;;4979304;28;20199;-81
2022/04/14 07:42:32;;;;;;;;;;;;;;;;;;;;;
2022/04/14 07:45:01;;;;;;;28.92;19.00;;;17.90;99.90;;;;;;4953112;28;20149;-82
2022/04/14 07:51:59;;;;;;;24.60;16.98;;;18.50;99.90;;;;;;4953712;28;20049;-82
2022/04/14 07:54:44;;;;;;;29.75;17.80;;;19.00;99.90;;;;;;4972891;28;20436;-81
2022/04/14 07:57:21;;;;;;;30.05;18.73;;;19.40;99.90;;;;;;5011017;28;20493;-82
2022/04/14 07:59:55;;;;;;;31.65;19.30;;;19.50;99.90;;;;;;4995361;28;20054;-82
2022/04/14 08:02:26;;;;;;;30.05;18.38;;;19.60;99.90;;;;;;4994735;28;20049;-81
2022/04/14 08:04:52;;;;;;;;;;;19.70;99.90;;;;;;5012078;28;20045;-80
2022/04/14 08:07:23;;;;;;;31.70;16.45;;;19.50;99.90;;;;;;5011964;28;20481;-79
2022/04/14 08:09:49;;;;;;;24.73;14.32;;;19.90;99.90;;;;;;4994837;28;20497;-78
2022/04/14 08:12:14;;;;;;;28.38;16.00;;;20.10;99.90;;;;;;5011615;28;20045;-81
2022/04/14 08:14:40;;;;;;;26.33;15.32;;;20.20;99.90;;;;;;4995271;28;20046;-80
2022/04/14 08:17:05;;;;;;;19.27;12.30;;;20.40;99.90;;;;;;5012291;28;20042;-81
2022/04/14 08:19:31;;;;;;;17.42;9.57;;;20.50;99.90;;;;;;5011214;28;20042;-82
2022/04/14 08:21:57;;;;;;;13.10;7.88;;;20.50;99.90;;;;;;4995003;28;20070;-82
2022/04/14 08:24:24;;;;;;;13.43;9.10;;;20.40;99.90;;;;;;5011596;28;20139;-81
2022/04/14 08:26:51;;;;;;;12.77;7.85;;;20.60;99.90;;;;;;5012692;28;20037;-81
2022/04/14 08:29:17;;;;;;;9.75;6.25;;;20.90;99.90;;;;;;5012739;28;20054;-80
2022/04/14 08:31:43;;;;;;;14.23;6.65;;;20.90;99.90;;;;;;5011580;28;20132;-81
2022/04/14 08:34:08;;;;;;;11.13;6.35;;;21.10;99.90;;;;;;5011150;28;20497;-81
2022/04/14 08:36:35;;;;;;;11.30;6.75;;;21.40;99.90;;;;;;4994791;28;20081;-81
2022/04/14 08:39:01;;;;;;;9.88;6.43;;;21.40;99.90;;;;;;4994958;28;20184;-81
2022/04/14 08:41:31;;;;;;;12.57;6.95;;;21.40;99.90;;;;;;5010894;28;20045;-81
2022/04/14 08:44:01;;;;;;;9.07;6.72;;;21.30;99.90;;;;;;5011233;28;20046;-81
2022/04/14 08:46:28;;;;;;;15.80;8.07;;;21.30;99.90;;;;;;5012825;28;20048;-83
2022/04/14 08:49:02;;;;;;;12.60;7.93;;;21.30;99.90;;;;;;4997903;28;20041;-82
2022/04/14 08:51:33;;;;;;;8.60;6.60;;;21.30;99.90;;;;;;4998233;28;20041;-82
2022/04/14 08:53:59;;;;;;;12.70;7.93;;;21.40;99.90;;;;;;5014846;28;20038;-82
2022/04/14 08:56:25;;;;;;;10.05;7.53;;;21.50;99.90;;;;;;5012637;28;20041;-83
2022/04/14 08:58:55;;;;;;;12.00;8.30;;;21.40;99.90;;;;;;4997814;28;20121;-82
2022/04/14 09:01:23;;;;;;;12.65;8.20;;;21.50;99.90;;;;;;5012912;28;20497;-83
2022/04/14 09:03:56;;;;;;;14.48;9.13;;;21.50;99.90;;;;;;4995949;28;20080;-82
2022/04/14 09:06:22;;;;;;;12.18;8.82;;;21.50;99.90;;;;;;4997575;28;20275;-82
2022/04/14 09:08:48;;;;;;;11.65;9.00;;;21.50;99.90;;;;;;5018434;28;20041;-82
2022/04/14 09:11:14;;;;;;;14.23;8.95;;;21.50;99.90;;;;;;4994881;28;20088;-83
2022/04/14 09:13:43;;;;;;;14.32;9.18;;;21.20;99.90;;;;;;5012282;28;20050;-82
2022/04/14 09:16:09;;;;;;;11.80;8.93;;;20.80;99.90;;;;;;5013134;28;20050;-82
2022/04/14 09:18:35;;;;;;;17.25;9.70;;;20.70;99.90;;;;;;5013269;28;20041;-82
2022/04/14 09:21:05;;;;;;;15.60;9.30;;;20.40;99.90;;;;;;5011377;28;20447;-83
2022/04/14 09:23:31;;;;;;;14.82;10.35;;;20.10;99.90;;;;;;5011423;28;20063;-82
2022/04/14 09:26:02;;;;;;;16.42;10.70;;;20.20;99.90;;;;;;4994350;28;20042;-82
2022/04/14 09:28:28;;;;;;;17.77;12.43;;;20.60;99.90;;;;;;5012032;28;20038;-82
2022/04/14 09:31:05;;;;;;;14.70;9.98;;;20.80;99.90;;;;;;5009951;28;20046;-82
2022/04/14 09:33:33;;;;;;;14.50;10.80;;;20.80;99.90;;;;;;5011446;28;20053;-82
2022/04/14 09:36:18;;;;;;;12.48;9.95;;;21.00;99.90;;;;;;5011679;28;20100;-82
2022/04/14 09:39:03;;;;;;;13.00;9.65;;;21.00;99.80;;;;;;5012320;28;20042;-82
2022/04/14 09:41:29;;;;;;;15.57;10.60;;;21.40;98.40;;;;;;4994622;28;20046;-81
2022/04/14 09:43:57;;;;;;;14.25;11.32;;;21.50;99.90;;;;;;5012197;28;20045;-81
2022/04/14 09:46:22;;;;;;;13.38;10.73;;;21.70;99.90;;;;;;5012479;28;20481;-82
2022/04/14 09:49:07;;;;;;;14.60;11.35;;;21.60;99.90;;;;;;5012472;28;20048;-82
2022/04/14 09:51:35;;;;;;;15.85;10.20;;;21.80;96.90;;;;;;5011767;28;20445;-82
2022/04/14 09:54:18;;;;;;;14.10;9.48;;;22.00;99.40;;;;;;5011805;28;20046;-82
2022/04/14 09:56:45;;;;;;;15.77;10.43;;;21.90;95.20;;;;;;5011354;28;20396;-81
2022/04/14 09:59:12;;;;;;;16.75;10.88;;;21.50;99.10;;;;;;4994192;28;20101;-81
2022/04/14 10:01:38;;;;;;;14.57;10.38;;;21.40;99.40;;;;;;5016966;28;20050;-82
2022/04/14 10:04:19;;;;;;;14.70;9.75;;;21.50;99.10;;;;;;5021578;28;20042;-83
2022/04/14 10:07:14;;;;;;;17.20;11.00;;;21.50;98.80;;;;;;5020327;28;20045;-80
2022/04/14 10:09:45;;;;;;;15.95;10.75;;;21.60;96.80;;;;;;5003302;28;20517;-83
2022/04/14 10:12:19;;;;;;;13.98;9.00;;;21.20;98.20;;;;;;5003930;28;20034;-84
2022/04/14 10:15:02;;;;;;;15.27;10.13;;;20.80;99.00;;;;;;5022333;28;20045;-84
2022/04/14 10:17:33;;;;;;;15.05;10.35;;;20.30;99.90;;;;;;5010098;28;20048;-83
2022/04/14 10:20:03;;;;;;;15.13;10.77;;;20.00;99.90;;;;;;5026558;28;20100;-83
2022/04/14 10:22:29;;;;;;;15.98;9.13;;;20.10;99.90;;;;;;5010312;28;20034;-82
2022/04/14 10:24:59;;;;;;;14.60;9.50;;;19.70;99.90;;;;;;5027212;28;20053;-82
2022/04/14 10:27:41;;;;;;;13.25;8.52;;;19.40;99.90;;;;;;5028038;28;20038;-83
2022/04/14 10:30:29;;;;;;;13.63;8.88;;;19.40;99.90;;;;;;5010947;28;20084;-82
2022/04/14 10:32:56;;;;;;;11.38;8.82;;;19.30;99.90;;;;;;5033143;28;20069;-83
2022/04/14 10:35:27;;;;;;;14.77;10.10;;;19.30;99.90;;;;;;5011498;28;20046;-83
2022/04/14 10:38:07;;;;;;;11.63;8.60;;;19.20;99.90;;;;;;5002919;28;20053;-83
2022/04/14 10:40:35;;;;;;;9.70;7.90;;;19.10;99.90;;;;;;5015965;28;20077;-82
2022/04/14 10:43:05;;;;;;;10.30;7.68;;;19.10;99.90;;;;;;5000069;28;20043;-82
2022/04/14 10:45:47;;;;;;;13.07;7.85;;;19.20;99.90;;;;;;5016213;28;20131;-83
2022/04/14 10:51:20;;;;;;;13.60;7.63;;;19.70;99.40;;;;;;5016105;28;20146;-84
2022/04/14 10:53:55;;;;;;;12.05;7.45;;;19.90;99.90;;;;;;5017466;28;20056;-84
2022/04/14 10:56:44;;;;;;;12.00;7.45;;;20.20;97.60;;;;;;5000012;28;20052;-82
2022/04/14 10:59:32;;;;;;;9.73;6.28;;;20.40;96.00;;;;;;5015937;28;20041;-82
2022/04/14 11:02:04;;;;;;;9.30;4.78;;;20.50;93.00;;;;;;4999986;28;20049;-83
2022/04/14 11:04:42;;;;;;;6.72;3.90;;;20.30;93.50;;;;;;5017012;28;20045;-83
2022/04/14 11:07:21;;;;;;;8.25;5.15;;;20.00;92.70;;;;;;5015900;28;20076;-83
2022/04/14 11:09:54;;;;;;;6.93;5.15;;;19.60;93.40;;;;;;5016579;28;20045;-82
2022/04/14 11:12:50;;;;;;;10.00;5.07;;;19.60;94.20;;;;;;5000109;28;20044;-84
2022/04/14 11:15:40;;;;;;;10.90;4.85;;;19.80;95.00;;;;;;5000306;28;20038;-82
2022/04/14 11:18:07;;;;;;;8.27;4.30;;;20.10;93.10;;;;;;5016760;28;20084;-81
2022/04/14 11:20:44;;;;;;;7.57;3.60;;;20.20;92.50;;;;;;5016685;28;20058;-82
2022/04/14 11:23:28;;;;;;;7.00;3.88;;;20.20;91.50;;;;;;5000236;28;20038;-83
2022/04/14 11:26:03;;;;;;;6.43;3.85;;;20.20;91.40;;;;;;5016550;28;20076;-82
2022/04/14 11:28:34;;;;;;;5.45;3.25;;;20.10;84.50;;;;;;5016969;28;20038;-82
2022/04/14 11:31:12;;;;;;;5.50;3.80;;;20.10;86.60;;;;;;5016892;28;20050;-83
2022/04/14 11:33:41;;;;;;;5.43;3.08;;;20.00;88.50;;;;;;4999643;28;20057;-82
2022/04/14 11:36:27;;;;;;;6.00;3.38;;;20.20;90.50;;;;;;5002312;28;20034;-84
2022/04/14 11:38:53;;;;;;;13.02;5.00;;;20.30;89.80;;;;;;5015489;28;20109;-84
2022/04/14 11:41:37;;;;;;;6.80;4.25;;;20.20;90.20;;;;;;5015746;28;20042;-82
2022/04/14 11:44:08;;;;;;;10.13;4.65;;;19.80;83.20;;;;;;5015797;28;20033;-84
2022/04/14 11:46:37;;;;;;;5.82;3.47;;;19.70;86.20;;;;;;4999283;28;20433;-83
2022/04/14 11:49:03;;;;;;;6.50;3.85;;;19.40;88.10;;;;;;5015042;28;20045;-82
2022/04/14 11:51:29;;;;;;;6.15;3.83;;;19.20;90.00;;;;;;5016661;28;20413;-82
2022/04/14 11:53:56;;;;;;;10.80;3.80;;;19.40;90.50;;;;;;5016362;28;20072;-81
2022/04/14 11:56:23;;;;;;;7.88;4.47;;;19.70;90.60;;;;;;5015451;28;20080;-81
2022/04/14 11:58:50;;;;;;;9.95;4.93;;;19.90;90.10;;;;;;5016367;28;20044;-81
2022/04/14 12:01:16;;;;;;;8.52;3.92;;;20.00;88.80;;;;;;5014966;28;20049;-83
2022/04/14 12:03:43;;;;;;;4.68;2.97;;;19.80;87.40;;;;;;4998657;28;20038;-82
2022/04/14 12:06:11;;;;;;;7.40;2.63;;;19.60;84.20;;;;;;5015449;28;20124;-82
2022/04/14 12:08:37;;;;;;;3.03;2.05;;;19.50;84.40;;;;;;5014709;28;20050;-82
2022/04/14 12:11:13;;;;;;;7.80;2.72;;;19.50;84.30;;;;;;5015776;28;20037;-83
2022/04/14 12:13:40;;;;;;;3.47;2.63;;;19.70;77.20;;;;;;4998147;28;20133;-81
2022/04/14 12:16:08;;;;;;;4.13;2.30;;;19.90;81.20;;;;;;5014666;28;20053;-83
2022/04/14 12:18:38;;;;;;;6.35;2.63;;;20.00;75.30;;;;;;5014436;28;20046;-83
2022/04/14 12:21:04;;;;;;;4.75;2.72;;;20.00;79.90;;;;;;4998155;28;20125;-82
2022/04/14 12:23:31;;;;;;;8.00;2.45;;;20.00;79.60;;;;;;5014706;28;20382;-82
2022/04/14 12:25:58;;;;;;;4.10;2.40;;;20.10;79.30;;;;;;4998355;28;20049;-84
2022/04/14 12:28:24;;;;;;;4.13;2.38;;;20.20;80.20;;;;;;4998068;28;20405;-82
2022/04/14 12:30:50;;;;;;;5.88;2.90;;;20.10;79.30;;;;;;5014052;28;20046;-82
2022/04/14 12:33:27;;;;;;;5.07;2.13;;;20.30;79.70;;;;;;5014656;28;20052;-82
2022/04/14 12:36:06;;;;;;;6.18;2.70;;;20.30;77.00;;;;;;4998003;28;20100;-82
2022/04/14 12:38:44;;;;;;;7.30;2.63;;;20.20;75.80;;;;;;5014051;28;20104;-82
2022/04/14 12:41:19;;;;;;;6.57;2.55;;;20.40;77.30;;;;;;4997994;28;20081;-81
2022/04/14 12:43:47;;;;;;;5.95;3.05;;;20.50;78.10;;;;;;5014227;28;20066;-80
2022/04/14 12:46:29;;;;;;;6.07;2.88;;;20.60;80.40;;;;;;4998080;28;20389;-82
2022/04/14 12:49:02;;;;;;;8.60;3.75;;;20.50;76.70;;;;;;5013964;28;20045;-82
2022/04/14 12:51:29;;;;;;;4.13;2.85;;;20.50;79.20;;;;;;5015419;28;20069;-82
2022/04/14 12:53:57;;;;;;;5.70;2.95;;;20.50;81.00;;;;;;5015608;28;20029;-84
2022/04/14 12:56:23;;;;;;;8.13;3.10;;;20.30;80.00;;;;;;5015428;28;20052;-81
2022/04/14 12:59:14;;;;;;;8.82;3.25;;;20.30;82.00;;;;;;5016502;28;20460;-84
2022/04/14 13:02:11;;;;;;;6.95;3.35;;;20.20;82.00;;;;;;5018788;28;20165;-82